sensor_id;sensor_type;location;lat;lon;timestamp;P1;durP1;ratioP1;P2;durP2;ratioP2
16352;SDS011;8286;51.274;9.542;2023-05-07T00:01:01;20.30;;;12.33;;
16352;SDS011;8286;51.274;9.542;2023-05-07T00:03:28;16.83;;;11.37;;
16352;SDS011;8286;51.274;9.542;2023-05-07T00:05:56;22.80;;;12.73;;
16352;SDS011;8286;51.274;9.542;2023-05-07T00:08:22;19.53;;;12.13;;
16352;SDS011;8286;51.274;9.542;2023-05-07T00:10:49;20.13;;;12.00;;
16352;SDS011;8286;51.274;9.542;2023-05-07T00:13:15;18.80;;;12.20;;
16352;SDS011;8286;51.274;9.542;2023-05-07T00:15:42;22.90;;;13.73;;
16352;SDS011;8286;51.274;9.542;2023-05-07T00:18:08;23.23;;;13.70;;
16352;SDS011;8286;51.274;9.542;2023-05-07T00:20:35;23.10;;;13.67;;
16352;SDS011;8286;51.274;9.542;2023-05-07T00:23:03;21.77;;;13.90;;
16352;SDS011;8286;51.274;9.542;2023-05-07T00:25:29;23.30;;;13.23;;
16352;SDS011;8286;51.274;9.542;2023-05-07T00:27:56;21.67;;;12.90;;
16352;SDS011;8286;51.274;9.542;2023-05-07T00:30:22;25.03;;;14.17;;
16352;SDS011;8286;51.274;9.542;2023-05-07T00:32:49;21.07;;;14.60;;
16352;SDS011;8286;51.274;9.542;2023-05-07T00:35:15;22.70;;;15.00;;
16352;SDS011;8286;51.274;9.542;2023-05-07T00:37:42;26.60;;;16.77;;
16352;SDS011;8286;51.274;9.542;2023-05-07T00:40:10;23.33;;;14.60;;
16352;SDS011;8286;51.274;9.542;2023-05-07T00:42:37;24.23;;;15.40;;
16352;SDS011;8286;51.274;9.542;2023-05-07T00:45:03;27.13;;;15.93;;
16352;SDS011;8286;51.274;9.542;2023-05-07T00:47:31;29.30;;;18.23;;
16352;SDS011;8286;51.274;9.542;2023-05-07T00:49:58;25.33;;;16.10;;
16352;SDS011;8286;51.274;9.542;2023-05-07T00:52:25;31.37;;;17.90;;
16352;SDS011;8286;51.274;9.542;2023-05-07T00:54:52;30.17;;;17.40;;
16352;SDS011;8286;51.274;9.542;2023-05-07T00:57:21;29.07;;;16.47;;
16352;SDS011;8286;51.274;9.542;2023-05-07T00:59:48;27.70;;;16.70;;
16352;SDS011;8286;51.274;9.542;2023-05-07T01:02:15;29.40;;;15.70;;
16352;SDS011;8286;51.274;9.542;2023-05-07T01:04:41;27.27;;;15.90;;
16352;SDS011;8286;51.274;9.542;2023-05-07T01:07:08;23.13;;;14.30;;
16352;SDS011;8286;51.274;9.542;2023-05-07T01:09:34;25.10;;;15.67;;
16352;SDS011;8286;51.274;9.542;2023-05-07T01:12:01;24.13;;;14.57;;
16352;SDS011;8286;51.274;9.542;2023-05-07T01:14:29;26.17;;;14.10;;
16352;SDS011;8286;51.274;9.542;2023-05-07T01:16:58;29.97;;;16.70;;
16352;SDS011;8286;51.274;9.542;2023-05-07T01:19:24;29.37;;;16.97;;
16352;SDS011;8286;51.274;9.542;2023-05-07T01:21:52;28.43;;;17.23;;
16352;SDS011;8286;51.274;9.542;2023-05-07T01:24:34;26.40;;;16.20;;
16352;SDS011;8286;51.274;9.542;2023-05-07T01:27:02;26.83;;;16.33;;
16352;SDS011;8286;51.274;9.542;2023-05-07T01:29:28;25.20;;;15.77;;
16352;SDS011;8286;51.274;9.542;2023-05-07T01:31:56;24.33;;;15.17;;
16352;SDS011;8286;51.274;9.542;2023-05-07T01:34:23;28.13;;;16.43;;
16352;SDS011;8286;51.274;9.542;2023-05-07T01:36:51;32.17;;;15.63;;
16352;SDS011;8286;51.274;9.542;2023-05-07T01:39:18;24.47;;;15.37;;
16352;SDS011;8286;51.274;9.542;2023-05-07T01:41:46;27.30;;;16.83;;
16352;SDS011;8286;51.274;9.542;2023-05-07T01:44:13;23.37;;;14.87;;
16352;SDS011;8286;51.274;9.542;2023-05-07T01:46:40;26.50;;;16.10;;
16352;SDS011;8286;51.274;9.542;2023-05-07T01:49:07;27.57;;;15.67;;
16352;SDS011;8286;51.274;9.542;2023-05-07T01:51:33;25.43;;;16.57;;
16352;SDS011;8286;51.274;9.542;2023-05-07T01:54:00;25.33;;;16.05;;
16352;SDS011;8286;51.274;9.542;2023-05-07T01:56:27;31.97;;;16.60;;
16352;SDS011;8286;51.274;9.542;2023-05-07T01:58:55;26.00;;;14.90;;
16352;SDS011;8286;51.274;9.542;2023-05-07T02:01:21;21.07;;;14.83;;
16352;SDS011;8286;51.274;9.542;2023-05-07T02:03:48;27.43;;;15.90;;
16352;SDS011;8286;51.274;9.542;2023-05-07T02:06:15;23.13;;;15.17;;
16352;SDS011;8286;51.274;9.542;2023-05-07T02:08:41;25.87;;;15.50;;
16352;SDS011;8286;51.274;9.542;2023-05-07T02:11:08;26.97;;;15.60;;
16352;SDS011;8286;51.274;9.542;2023-05-07T02:13:34;27.50;;;15.47;;
16352;SDS011;8286;51.274;9.542;2023-05-07T02:16:02;26.40;;;15.63;;
16352;SDS011;8286;51.274;9.542;2023-05-07T02:18:29;26.57;;;15.00;;
16352;SDS011;8286;51.274;9.542;2023-05-07T02:20:55;21.40;;;13.77;;
16352;SDS011;8286;51.274;9.542;2023-05-07T02:23:22;21.90;;;14.50;;
16352;SDS011;8286;51.274;9.542;2023-05-07T02:25:48;23.23;;;14.90;;
16352;SDS011;8286;51.274;9.542;2023-05-07T02:28:15;23.37;;;14.47;;
16352;SDS011;8286;51.274;9.542;2023-05-07T02:30:41;21.77;;;14.07;;
16352;SDS011;8286;51.274;9.542;2023-05-07T02:33:09;24.27;;;14.20;;
16352;SDS011;8286;51.274;9.542;2023-05-07T02:35:37;24.20;;;14.67;;
16352;SDS011;8286;51.274;9.542;2023-05-07T02:38:04;23.43;;;14.13;;
16352;SDS011;8286;51.274;9.542;2023-05-07T02:40:30;21.27;;;13.50;;
16352;SDS011;8286;51.274;9.542;2023-05-07T02:42:58;28.17;;;15.63;;
16352;SDS011;8286;51.274;9.542;2023-05-07T02:45:25;28.00;;;15.27;;
16352;SDS011;8286;51.274;9.542;2023-05-07T02:47:51;24.00;;;14.53;;
16352;SDS011;8286;51.274;9.542;2023-05-07T02:50:19;24.83;;;14.07;;
16352;SDS011;8286;51.274;9.542;2023-05-07T02:52:46;27.60;;;15.80;;
16352;SDS011;8286;51.274;9.542;2023-05-07T02:55:13;21.73;;;14.97;;
16352;SDS011;8286;51.274;9.542;2023-05-07T02:57:39;22.97;;;15.07;;
16352;SDS011;8286;51.274;9.542;2023-05-07T03:00:12;25.60;;;16.07;;
16352;SDS011;8286;51.274;9.542;2023-05-07T03:02:40;27.33;;;15.83;;
16352;SDS011;8286;51.274;9.542;2023-05-07T03:05:06;24.67;;;15.20;;
16352;SDS011;8286;51.274;9.542;2023-05-07T03:07:35;25.73;;;15.43;;
16352;SDS011;8286;51.274;9.542;2023-05-07T03:10:01;24.77;;;15.53;;
16352;SDS011;8286;51.274;9.542;2023-05-07T03:12:28;26.97;;;15.20;;
16352;SDS011;8286;51.274;9.542;2023-05-07T03:14:55;24.00;;;15.33;;
16352;SDS011;8286;51.274;9.542;2023-05-07T03:17:21;24.93;;;15.23;;
16352;SDS011;8286;51.274;9.542;2023-05-07T03:19:48;28.50;;;16.33;;
16352;SDS011;8286;51.274;9.542;2023-05-07T03:22:14;25.70;;;14.90;;
16352;SDS011;8286;51.274;9.542;2023-05-07T03:24:42;24.73;;;15.37;;
16352;SDS011;8286;51.274;9.542;2023-05-07T03:27:09;25.17;;;15.83;;
16352;SDS011;8286;51.274;9.542;2023-05-07T03:29:36;24.77;;;15.07;;
16352;SDS011;8286;51.274;9.542;2023-05-07T03:32:02;24.73;;;14.87;;
16352;SDS011;8286;51.274;9.542;2023-05-07T03:34:29;25.30;;;14.97;;
16352;SDS011;8286;51.274;9.542;2023-05-07T03:36:56;24.27;;;14.43;;
16352;SDS011;8286;51.274;9.542;2023-05-07T03:39:22;20.57;;;13.93;;
16352;SDS011;8286;51.274;9.542;2023-05-07T03:41:50;24.67;;;15.20;;
16352;SDS011;8286;51.274;9.542;2023-05-07T03:44:16;22.57;;;13.40;;
16352;SDS011;8286;51.274;9.542;2023-05-07T03:46:43;26.43;;;14.37;;
16352;SDS011;8286;51.274;9.542;2023-05-07T03:49:09;22.80;;;14.83;;
16352;SDS011;8286;51.274;9.542;2023-05-07T03:51:36;25.20;;;14.73;;
16352;SDS011;8286;51.274;9.542;2023-05-07T03:54:02;23.77;;;14.77;;
16352;SDS011;8286;51.274;9.542;2023-05-07T03:56:29;26.63;;;15.47;;
16352;SDS011;8286;51.274;9.542;2023-05-07T03:58:57;22.30;;;14.60;;
16352;SDS011;8286;51.274;9.542;2023-05-07T04:01:24;26.87;;;16.37;;
16352;SDS011;8286;51.274;9.542;2023-05-07T04:03:50;24.63;;;14.00;;
16352;SDS011;8286;51.274;9.542;2023-05-07T04:06:17;25.90;;;15.83;;
16352;SDS011;8286;51.274;9.542;2023-05-07T04:08:43;24.87;;;14.73;;
16352;SDS011;8286;51.274;9.542;2023-05-07T04:11:10;28.47;;;16.10;;
16352;SDS011;8286;51.274;9.542;2023-05-07T04:13:36;28.53;;;15.83;;
16352;SDS011;8286;51.274;9.542;2023-05-07T04:16:05;23.17;;;14.67;;
16352;SDS011;8286;51.274;9.542;2023-05-07T04:18:32;24.97;;;15.47;;
16352;SDS011;8286;51.274;9.542;2023-05-07T04:20:58;28.33;;;15.93;;
16352;SDS011;8286;51.274;9.542;2023-05-07T04:23:25;28.83;;;15.90;;
16352;SDS011;8286;51.274;9.542;2023-05-07T04:25:51;27.07;;;15.50;;
16352;SDS011;8286;51.274;9.542;2023-05-07T04:28:19;25.10;;;15.30;;
16352;SDS011;8286;51.274;9.542;2023-05-07T04:30:46;27.93;;;15.37;;
16352;SDS011;8286;51.274;9.542;2023-05-07T04:33:14;24.07;;;14.73;;
16352;SDS011;8286;51.274;9.542;2023-05-07T04:35:41;23.80;;;14.53;;
16352;SDS011;8286;51.274;9.542;2023-05-07T04:38:08;24.23;;;14.43;;
16352;SDS011;8286;51.274;9.542;2023-05-07T04:40:35;24.93;;;15.33;;
16352;SDS011;8286;51.274;9.542;2023-05-07T04:43:01;27.07;;;14.53;;
16352;SDS011;8286;51.274;9.542;2023-05-07T04:45:28;29.83;;;14.47;;
16352;SDS011;8286;51.274;9.542;2023-05-07T04:47:55;22.23;;;13.13;;
16352;SDS011;8286;51.274;9.542;2023-05-07T04:50:22;29.23;;;15.03;;
16352;SDS011;8286;51.274;9.542;2023-05-07T04:52:50;24.23;;;13.73;;
16352;SDS011;8286;51.274;9.542;2023-05-07T04:55:16;23.57;;;13.73;;
16352;SDS011;8286;51.274;9.542;2023-05-07T04:57:43;22.70;;;12.47;;
16352;SDS011;8286;51.274;9.542;2023-05-07T05:00:10;24.20;;;11.77;;
16352;SDS011;8286;51.274;9.542;2023-05-07T05:02:39;22.63;;;12.70;;
16352;SDS011;8286;51.274;9.542;2023-05-07T05:05:06;21.23;;;12.77;;
16352;SDS011;8286;51.274;9.542;2023-05-07T05:07:34;20.27;;;12.57;;
16352;SDS011;8286;51.274;9.542;2023-05-07T05:10:01;20.40;;;11.33;;
16352;SDS011;8286;51.274;9.542;2023-05-07T05:12:28;19.77;;;11.50;;
16352;SDS011;8286;51.274;9.542;2023-05-07T05:14:55;21.60;;;11.60;;
16352;SDS011;8286;51.274;9.542;2023-05-07T05:17:21;19.80;;;11.30;;
16352;SDS011;8286;51.274;9.542;2023-05-07T05:19:48;17.07;;;10.63;;
16352;SDS011;8286;51.274;9.542;2023-05-07T05:22:14;17.40;;;10.63;;
16352;SDS011;8286;51.274;9.542;2023-05-07T05:24:42;19.77;;;10.07;;
16352;SDS011;8286;51.274;9.542;2023-05-07T05:27:09;18.77;;;10.13;;
16352;SDS011;8286;51.274;9.542;2023-05-07T05:29:35;18.53;;;10.53;;
16352;SDS011;8286;51.274;9.542;2023-05-07T05:32:02;14.97;;;9.90;;
16352;SDS011;8286;51.274;9.542;2023-05-07T05:34:28;15.57;;;9.07;;
16352;SDS011;8286;51.274;9.542;2023-05-07T05:36:55;17.53;;;10.17;;
16352;SDS011;8286;51.274;9.542;2023-05-07T05:39:21;16.20;;;9.27;;
16352;SDS011;8286;51.274;9.542;2023-05-07T05:41:49;14.40;;;8.90;;
16352;SDS011;8286;51.274;9.542;2023-05-07T05:44:16;15.77;;;9.40;;
16352;SDS011;8286;51.274;9.542;2023-05-07T05:46:42;14.77;;;8.93;;
16352;SDS011;8286;51.274;9.542;2023-05-07T05:49:09;16.30;;;9.90;;
16352;SDS011;8286;51.274;9.542;2023-05-07T05:51:36;15.67;;;9.50;;
16352;SDS011;8286;51.274;9.542;2023-05-07T05:54:02;11.73;;;8.27;;
16352;SDS011;8286;51.274;9.542;2023-05-07T05:56:29;13.37;;;8.57;;
16352;SDS011;8286;51.274;9.542;2023-05-07T05:58:57;13.33;;;9.13;;
16352;SDS011;8286;51.274;9.542;2023-05-07T06:01:24;15.43;;;9.00;;
16352;SDS011;8286;51.274;9.542;2023-05-07T06:03:50;10.83;;;7.20;;
16352;SDS011;8286;51.274;9.542;2023-05-07T06:06:17;13.70;;;8.37;;
16352;SDS011;8286;51.274;9.542;2023-05-07T06:08:43;13.87;;;9.00;;
16352;SDS011;8286;51.274;9.542;2023-05-07T06:11:10;12.67;;;8.13;;
16352;SDS011;8286;51.274;9.542;2023-05-07T06:13:36;15.57;;;8.90;;
16352;SDS011;8286;51.274;9.542;2023-05-07T06:16:05;15.90;;;8.67;;
16352;SDS011;8286;51.274;9.542;2023-05-07T06:18:32;13.03;;;8.00;;
16352;SDS011;8286;51.274;9.542;2023-05-07T06:21:01;13.63;;;7.80;;
16352;SDS011;8286;51.274;9.542;2023-05-07T06:23:27;12.27;;;8.17;;
16352;SDS011;8286;51.274;9.542;2023-05-07T06:25:54;12.20;;;8.50;;
16352;SDS011;8286;51.274;9.542;2023-05-07T06:28:20;13.90;;;8.50;;
16352;SDS011;8286;51.274;9.542;2023-05-07T06:30:47;14.40;;;8.97;;
16352;SDS011;8286;51.274;9.542;2023-05-07T06:33:16;12.20;;;8.33;;
16352;SDS011;8286;51.274;9.542;2023-05-07T06:35:42;13.80;;;8.83;;
16352;SDS011;8286;51.274;9.542;2023-05-07T06:38:09;12.82;;;8.02;;
16352;SDS011;8286;51.274;9.542;2023-05-07T06:40:36;8.75;;;6.70;;
16352;SDS011;8286;51.274;9.542;2023-05-07T06:43:02;10.98;;;7.47;;
16352;SDS011;8286;51.274;9.542;2023-05-07T06:45:29;9.60;;;6.60;;
16352;SDS011;8286;51.274;9.542;2023-05-07T06:47:55;9.60;;;6.22;;
16352;SDS011;8286;51.274;9.542;2023-05-07T06:50:23;7.85;;;5.82;;
16352;SDS011;8286;51.274;9.542;2023-05-07T06:52:49;8.45;;;5.88;;
16352;SDS011;8286;51.274;9.542;2023-05-07T06:55:16;8.27;;;5.90;;
16352;SDS011;8286;51.274;9.542;2023-05-07T06:57:44;9.87;;;5.63;;
16352;SDS011;8286;51.274;9.542;2023-05-07T07:00:11;7.07;;;5.70;;
16352;SDS011;8286;51.274;9.542;2023-05-07T07:02:38;10.43;;;6.30;;
16352;SDS011;8286;51.274;9.542;2023-05-07T07:05:05;8.27;;;5.65;;
16352;SDS011;8286;51.274;9.542;2023-05-07T07:07:34;6.10;;;5.20;;
16352;SDS011;8286;51.274;9.542;2023-05-07T07:10:00;9.03;;;5.77;;
16352;SDS011;8286;51.274;9.542;2023-05-07T07:12:28;9.63;;;6.30;;
16352;SDS011;8286;51.274;9.542;2023-05-07T07:14:54;9.17;;;5.73;;
16352;SDS011;8286;51.274;9.542;2023-05-07T07:17:21;8.67;;;5.50;;
16352;SDS011;8286;51.274;9.542;2023-05-07T07:19:48;7.17;;;5.07;;
16352;SDS011;8286;51.274;9.542;2023-05-07T07:22:14;7.07;;;5.47;;
16352;SDS011;8286;51.274;9.542;2023-05-07T07:24:42;6.80;;;5.03;;
16352;SDS011;8286;51.274;9.542;2023-05-07T07:27:08;6.13;;;5.53;;
16352;SDS011;8286;51.274;9.542;2023-05-07T07:29:35;6.60;;;4.33;;
16352;SDS011;8286;51.274;9.542;2023-05-07T07:32:02;8.27;;;5.23;;
16352;SDS011;8286;51.274;9.542;2023-05-07T07:34:28;7.40;;;5.67;;
16352;SDS011;8286;51.274;9.542;2023-05-07T07:36:55;6.20;;;4.60;;
16352;SDS011;8286;51.274;9.542;2023-05-07T07:39:21;7.43;;;5.03;;
16352;SDS011;8286;51.274;9.542;2023-05-07T07:41:49;6.93;;;5.30;;
16352;SDS011;8286;51.274;9.542;2023-05-07T07:44:16;8.50;;;5.10;;
16352;SDS011;8286;51.274;9.542;2023-05-07T07:46:42;7.38;;;5.28;;
16352;SDS011;8286;51.274;9.542;2023-05-07T07:49:09;5.53;;;4.93;;
16352;SDS011;8286;51.274;9.542;2023-05-07T07:51:35;6.18;;;4.95;;
16352;SDS011;8286;51.274;9.542;2023-05-07T07:54:02;6.20;;;4.90;;
16352;SDS011;8286;51.274;9.542;2023-05-07T07:56:29;6.20;;;4.90;;
16352;SDS011;8286;51.274;9.542;2023-05-07T07:58:57;8.60;;;5.10;;
16352;SDS011;8286;51.274;9.542;2023-05-07T08:01:23;6.72;;;5.05;;
16352;SDS011;8286;51.274;9.542;2023-05-07T08:03:51;5.85;;;4.80;;
16352;SDS011;8286;51.274;9.542;2023-05-07T08:06:17;4.80;;;4.03;;
16352;SDS011;8286;51.274;9.542;2023-05-07T08:08:44;7.35;;;5.15;;
16352;SDS011;8286;51.274;9.542;2023-05-07T08:11:10;6.25;;;5.10;;
16352;SDS011;8286;51.274;9.542;2023-05-07T08:13:37;8.32;;;5.15;;
16352;SDS011;8286;51.274;9.542;2023-05-07T08:16:05;6.93;;;4.57;;
16352;SDS011;8286;51.274;9.542;2023-05-07T08:18:32;7.95;;;4.88;;
16352;SDS011;8286;51.274;9.542;2023-05-07T08:20:58;7.55;;;4.72;;
16352;SDS011;8286;51.274;9.542;2023-05-07T08:23:25;5.43;;;4.88;;
16352;SDS011;8286;51.274;9.542;2023-05-07T08:25:51;7.50;;;5.05;;
16352;SDS011;8286;51.274;9.542;2023-05-07T08:28:18;6.78;;;5.93;;
16352;SDS011;8286;51.274;9.542;2023-05-07T08:30:46;7.00;;;4.88;;
16352;SDS011;8286;51.274;9.542;2023-05-07T08:33:14;6.60;;;5.10;;
16352;SDS011;8286;51.274;9.542;2023-05-07T08:35:40;7.10;;;5.53;;
16352;SDS011;8286;51.274;9.542;2023-05-07T08:38:07;6.30;;;4.90;;
16352;SDS011;8286;51.274;9.542;2023-05-07T08:40:35;7.20;;;5.25;;
16352;SDS011;8286;51.274;9.542;2023-05-07T08:43:03;6.60;;;4.75;;
16352;SDS011;8286;51.274;9.542;2023-05-07T08:45:32;8.27;;;6.28;;
16352;SDS011;8286;51.274;9.542;2023-05-07T08:48:00;6.07;;;5.07;;
16352;SDS011;8286;51.274;9.542;2023-05-07T08:50:29;6.35;;;5.03;;
16352;SDS011;8286;51.274;9.542;2023-05-07T08:52:56;7.05;;;5.50;;
16352;SDS011;8286;51.274;9.542;2023-05-07T08:55:23;5.75;;;4.80;;
16352;SDS011;8286;51.274;9.542;2023-05-07T08:57:50;5.38;;;4.63;;
16352;SDS011;8286;51.274;9.542;2023-05-07T09:00:18;5.97;;;4.85;;
16352;SDS011;8286;51.274;9.542;2023-05-07T09:02:44;5.35;;;4.82;;
16352;SDS011;8286;51.274;9.542;2023-05-07T09:05:11;8.50;;;5.38;;
16352;SDS011;8286;51.274;9.542;2023-05-07T09:07:39;5.97;;;5.35;;
16352;SDS011;8286;51.274;9.542;2023-05-07T09:10:06;7.85;;;5.00;;
16352;SDS011;8286;51.274;9.542;2023-05-07T09:12:33;5.93;;;4.53;;
16352;SDS011;8286;51.274;9.542;2023-05-07T09:15:01;5.72;;;4.50;;
16352;SDS011;8286;51.274;9.542;2023-05-07T09:17:28;5.32;;;4.50;;
16352;SDS011;8286;51.274;9.542;2023-05-07T09:19:54;4.97;;;4.47;;
16352;SDS011;8286;51.274;9.542;2023-05-07T09:22:21;7.68;;;5.28;;
16352;SDS011;8286;51.274;9.542;2023-05-07T09:24:49;4.97;;;4.43;;
16352;SDS011;8286;51.274;9.542;2023-05-07T09:27:17;5.38;;;4.15;;
16352;SDS011;8286;51.274;9.542;2023-05-07T09:29:43;6.75;;;4.55;;
16352;SDS011;8286;51.274;9.542;2023-05-07T09:32:10;5.20;;;4.65;;
16352;SDS011;8286;51.274;9.542;2023-05-07T09:34:37;5.85;;;4.35;;
16352;SDS011;8286;51.274;9.542;2023-05-07T09:37:03;6.22;;;4.20;;
16352;SDS011;8286;51.274;9.542;2023-05-07T09:39:40;5.47;;;4.35;;
16352;SDS011;8286;51.274;9.542;2023-05-07T09:42:08;5.70;;;4.30;;
16352;SDS011;8286;51.274;9.542;2023-05-07T09:44:36;7.45;;;4.18;;
16352;SDS011;8286;51.274;9.542;2023-05-07T09:47:04;5.07;;;4.45;;
16352;SDS011;8286;51.274;9.542;2023-05-07T09:49:33;5.28;;;4.03;;
16352;SDS011;8286;51.274;9.542;2023-05-07T09:52:01;4.38;;;3.97;;
16352;SDS011;8286;51.274;9.542;2023-05-07T09:54:28;4.43;;;3.05;;
16352;SDS011;8286;51.274;9.542;2023-05-07T09:56:56;4.60;;;3.50;;
16352;SDS011;8286;51.274;9.542;2023-05-07T09:59:24;3.97;;;3.67;;
16352;SDS011;8286;51.274;9.542;2023-05-07T10:01:51;3.65;;;3.30;;
16352;SDS011;8286;51.274;9.542;2023-05-07T10:04:18;3.05;;;2.83;;
16352;SDS011;8286;51.274;9.542;2023-05-07T10:06:46;3.30;;;3.00;;
16352;SDS011;8286;51.274;9.542;2023-05-07T10:09:13;4.10;;;2.90;;
16352;SDS011;8286;51.274;9.542;2023-05-07T10:11:40;3.00;;;2.70;;
16352;SDS011;8286;51.274;9.542;2023-05-07T10:14:07;2.72;;;2.50;;
16352;SDS011;8286;51.274;9.542;2023-05-07T10:16:36;3.10;;;2.70;;
16352;SDS011;8286;51.274;9.542;2023-05-07T10:19:03;2.38;;;2.20;;
16352;SDS011;8286;51.274;9.542;2023-05-07T10:21:30;3.00;;;2.70;;
16352;SDS011;8286;51.274;9.542;2023-05-07T10:23:58;2.65;;;2.45;;
16352;SDS011;8286;51.274;9.542;2023-05-07T10:28:54;2.97;;;2.72;;
16352;SDS011;8286;51.274;9.542;2023-05-07T10:31:29;2.78;;;2.35;;
16352;SDS011;8286;51.274;9.542;2023-05-07T10:34:20;2.88;;;2.63;;
16352;SDS011;8286;51.274;9.542;2023-05-07T10:36:48;2.92;;;2.65;;
16352;SDS011;8286;51.274;9.542;2023-05-07T10:39:16;2.40;;;2.25;;
16352;SDS011;8286;51.274;9.542;2023-05-07T10:41:43;2.63;;;2.42;;
16352;SDS011;8286;51.274;9.542;2023-05-07T10:44:10;2.97;;;2.67;;
16352;SDS011;8286;51.274;9.542;2023-05-07T10:46:36;2.70;;;2.50;;
16352;SDS011;8286;51.274;9.542;2023-05-07T10:49:07;3.35;;;2.92;;
16352;SDS011;8286;51.274;9.542;2023-05-07T10:51:36;2.38;;;2.10;;
16352;SDS011;8286;51.274;9.542;2023-05-07T10:54:22;3.10;;;2.22;;
16352;SDS011;8286;51.274;9.542;2023-05-07T10:56:49;2.20;;;2.08;;
16352;SDS011;8286;51.274;9.542;2023-05-07T10:59:30;2.30;;;2.10;;
16352;SDS011;8286;51.274;9.542;2023-05-07T11:01:59;2.67;;;2.47;;
16352;SDS011;8286;51.274;9.542;2023-05-07T11:04:29;3.17;;;2.80;;
16352;SDS011;8286;51.274;9.542;2023-05-07T11:09:56;3.10;;;2.90;;
16352;SDS011;8286;51.274;9.542;2023-05-07T11:15:33;3.00;;;2.58;;
16352;SDS011;8286;51.274;9.542;2023-05-07T11:18:11;2.60;;;2.47;;
16352;SDS011;8286;51.274;9.542;2023-05-07T11:20:46;3.70;;;2.90;;
16352;SDS011;8286;51.274;9.542;2023-05-07T11:26:22;3.20;;;2.90;;
16352;SDS011;8286;51.274;9.542;2023-05-07T11:28:50;3.22;;;2.80;;
16352;SDS011;8286;51.274;9.542;2023-05-07T11:31:20;3.35;;;3.03;;
16352;SDS011;8286;51.274;9.542;2023-05-07T11:33:47;3.20;;;2.90;;
16352;SDS011;8286;51.274;9.542;2023-05-07T11:36:15;3.72;;;3.25;;
16352;SDS011;8286;51.274;9.542;2023-05-07T11:38:42;3.30;;;3.00;;
16352;SDS011;8286;51.274;9.542;2023-05-07T11:41:09;3.70;;;3.10;;
16352;SDS011;8286;51.274;9.542;2023-05-07T11:43:35;3.15;;;2.88;;
16352;SDS011;8286;51.274;9.542;2023-05-07T11:46:05;3.85;;;3.55;;
16352;SDS011;8286;51.274;9.542;2023-05-07T11:48:34;3.30;;;3.03;;
16352;SDS011;8286;51.274;9.542;2023-05-07T11:51:00;4.00;;;3.60;;
16352;SDS011;8286;51.274;9.542;2023-05-07T11:53:35;4.13;;;2.67;;
16352;SDS011;8286;51.274;9.542;2023-05-07T11:56:05;3.83;;;3.42;;
16352;SDS011;8286;51.274;9.542;2023-05-07T11:58:32;4.13;;;3.60;;
16352;SDS011;8286;51.274;9.542;2023-05-07T12:00:59;3.38;;;3.08;;
16352;SDS011;8286;51.274;9.542;2023-05-07T12:03:25;3.70;;;3.40;;
16352;SDS011;8286;51.274;9.542;2023-05-07T12:05:52;4.63;;;3.70;;
16352;SDS011;8286;51.274;9.542;2023-05-07T12:08:19;4.28;;;3.88;;
16352;SDS011;8286;51.274;9.542;2023-05-07T12:10:48;5.32;;;4.05;;
16352;SDS011;8286;51.274;9.542;2023-05-07T12:13:16;3.67;;;3.38;;
16352;SDS011;8286;51.274;9.542;2023-05-07T12:15:42;4.45;;;3.80;;
16352;SDS011;8286;51.274;9.542;2023-05-07T12:18:09;3.58;;;3.28;;
16352;SDS011;8286;51.274;9.542;2023-05-07T12:20:36;4.38;;;3.60;;
16352;SDS011;8286;51.274;9.542;2023-05-07T12:23:03;3.72;;;3.40;;
16352;SDS011;8286;51.274;9.542;2023-05-07T12:25:30;3.72;;;3.40;;
16352;SDS011;8286;51.274;9.542;2023-05-07T12:27:58;4.80;;;3.90;;
16352;SDS011;8286;51.274;9.542;2023-05-07T12:30:26;4.15;;;3.60;;
16352;SDS011;8286;51.274;9.542;2023-05-07T12:32:53;3.80;;;3.42;;
16352;SDS011;8286;51.274;9.542;2023-05-07T12:35:26;4.07;;;3.67;;
16352;SDS011;8286;51.274;9.542;2023-05-07T12:37:55;3.90;;;3.58;;
16352;SDS011;8286;51.274;9.542;2023-05-07T12:40:24;4.10;;;3.70;;
16352;SDS011;8286;51.274;9.542;2023-05-07T12:42:52;4.55;;;3.60;;
16352;SDS011;8286;51.274;9.542;2023-05-07T12:45:21;4.70;;;3.95;;
16352;SDS011;8286;51.274;9.542;2023-05-07T12:47:48;5.78;;;3.92;;
16352;SDS011;8286;51.274;9.542;2023-05-07T12:50:15;4.43;;;4.07;;
16352;SDS011;8286;51.274;9.542;2023-05-07T12:52:42;3.83;;;3.53;;
16352;SDS011;8286;51.274;9.542;2023-05-07T12:55:11;3.60;;;3.30;;
16352;SDS011;8286;51.274;9.542;2023-05-07T12:57:40;4.45;;;4.05;;
16352;SDS011;8286;51.274;9.542;2023-05-07T13:00:08;3.03;;;2.78;;
16352;SDS011;8286;51.274;9.542;2023-05-07T13:02:38;8.18;;;4.68;;
16352;SDS011;8286;51.274;9.542;2023-05-07T13:05:06;4.85;;;4.35;;
16352;SDS011;8286;51.274;9.542;2023-05-07T13:07:33;4.43;;;3.92;;
16352;SDS011;8286;51.274;9.542;2023-05-07T13:09:59;4.53;;;3.97;;
16352;SDS011;8286;51.274;9.542;2023-05-07T13:12:26;7.00;;;4.50;;
16352;SDS011;8286;51.274;9.542;2023-05-07T13:14:52;5.10;;;4.28;;
16352;SDS011;8286;51.274;9.542;2023-05-07T13:17:19;5.30;;;4.07;;
16352;SDS011;8286;51.274;9.542;2023-05-07T13:19:47;5.55;;;4.70;;
16352;SDS011;8286;51.274;9.542;2023-05-07T13:22:13;5.78;;;4.70;;
16352;SDS011;8286;51.274;9.542;2023-05-07T13:24:40;4.88;;;4.18;;
16352;SDS011;8286;51.274;9.542;2023-05-07T13:27:08;5.97;;;4.35;;
16352;SDS011;8286;51.274;9.542;2023-05-07T13:29:35;5.47;;;4.38;;
16352;SDS011;8286;51.274;9.542;2023-05-07T13:32:01;4.90;;;4.30;;
16352;SDS011;8286;51.274;9.542;2023-05-07T13:34:28;4.22;;;3.83;;
16352;SDS011;8286;51.274;9.542;2023-05-07T13:36:56;5.85;;;4.60;;
16352;SDS011;8286;51.274;9.542;2023-05-07T13:39:22;4.78;;;4.05;;
16352;SDS011;8286;51.274;9.542;2023-05-07T13:41:49;7.28;;;4.75;;
16352;SDS011;8286;51.274;9.542;2023-05-07T13:44:15;6.13;;;4.43;;
16352;SDS011;8286;51.274;9.542;2023-05-07T13:46:42;6.03;;;5.03;;
16352;SDS011;8286;51.274;9.542;2023-05-07T13:49:08;5.57;;;4.95;;
16352;SDS011;8286;51.274;9.542;2023-05-07T13:51:36;7.00;;;5.90;;
16352;SDS011;8286;51.274;9.542;2023-05-07T13:54:04;7.60;;;4.50;;
16352;SDS011;8286;51.274;9.542;2023-05-07T13:56:31;5.10;;;4.63;;
16352;SDS011;8286;51.274;9.542;2023-05-07T13:59:00;6.63;;;5.90;;
16352;SDS011;8286;51.274;9.542;2023-05-07T14:01:27;7.75;;;4.68;;
16352;SDS011;8286;51.274;9.542;2023-05-07T14:03:53;6.07;;;5.03;;
16352;SDS011;8286;51.274;9.542;2023-05-07T14:06:21;5.90;;;4.88;;
16352;SDS011;8286;51.274;9.542;2023-05-07T14:08:48;6.13;;;4.88;;
16352;SDS011;8286;51.274;9.542;2023-05-07T14:11:15;5.60;;;5.00;;
16352;SDS011;8286;51.274;9.542;2023-05-07T14:13:42;4.90;;;4.47;;
16352;SDS011;8286;51.274;9.542;2023-05-07T14:16:08;6.25;;;4.80;;
16352;SDS011;8286;51.274;9.542;2023-05-07T14:18:35;4.82;;;3.90;;
16352;SDS011;8286;51.274;9.542;2023-05-07T14:21:02;6.13;;;4.50;;
16352;SDS011;8286;51.274;9.542;2023-05-07T14:23:28;5.57;;;4.65;;
16352;SDS011;8286;51.274;9.542;2023-05-07T14:25:55;5.95;;;4.70;;
16352;SDS011;8286;51.274;9.542;2023-05-07T14:28:23;6.35;;;4.50;;
16352;SDS011;8286;51.274;9.542;2023-05-07T14:30:50;6.28;;;4.63;;
16352;SDS011;8286;51.274;9.542;2023-05-07T14:33:16;5.32;;;4.72;;
16352;SDS011;8286;51.274;9.542;2023-05-07T14:35:43;5.15;;;4.20;;
16352;SDS011;8286;51.274;9.542;2023-05-07T14:38:13;7.15;;;5.18;;
16352;SDS011;8286;51.274;9.542;2023-05-07T14:40:40;4.75;;;4.22;;
16352;SDS011;8286;51.274;9.542;2023-05-07T14:43:06;7.20;;;4.57;;
16352;SDS011;8286;51.274;9.542;2023-05-07T14:45:34;5.15;;;4.63;;
16352;SDS011;8286;51.274;9.542;2023-05-07T14:48:01;5.45;;;4.20;;
16352;SDS011;8286;51.274;9.542;2023-05-07T14:50:27;5.18;;;4.68;;
16352;SDS011;8286;51.274;9.542;2023-05-07T14:52:54;6.80;;;4.65;;
16352;SDS011;8286;51.274;9.542;2023-05-07T14:55:20;5.40;;;4.72;;
16352;SDS011;8286;51.274;9.542;2023-05-07T14:57:47;6.78;;;4.90;;
16352;SDS011;8286;51.274;9.542;2023-05-07T15:00:13;5.35;;;4.85;;
16352;SDS011;8286;51.274;9.542;2023-05-07T15:02:41;7.20;;;4.55;;